sensor_id;sensor_type;location;lat;lon;timestamp;temperature;humidity
11511;DHT22;5812;48.864;9.190;2022-09-14T00:00:25;19.70;99.90
11511;DHT22;5812;48.864;9.190;2022-09-14T00:02:51;19.80;99.90
11511;DHT22;5812;48.864;9.190;2022-09-14T00:05:16;19.60;99.90
11511;DHT22;5812;48.864;9.190;2022-09-14T00:07:42;19.70;99.90
11511;DHT22;5812;48.864;9.190;2022-09-14T00:10:08;19.60;99.90
11511;DHT22;5812;48.864;9.190;2022-09-14T00:12:34;19.60;99.90
11511;DHT22;5812;48.864;9.190;2022-09-14T00:15:00;19.60;99.90
11511;DHT22;5812;48.864;9.190;2022-09-14T00:17:25;19.60;99.90
11511;DHT22;5812;48.864;9.190;2022-09-14T00:19:51;19.70;99.90
11511;DHT22;5812;48.864;9.190;2022-09-14T00:22:18;19.80;99.90
11511;DHT22;5812;48.864;9.190;2022-09-14T00:24:43;19.80;46.60
11511;DHT22;5812;48.864;9.190;2022-09-14T00:27:09;19.90;1.00
11511;DHT22;5812;48.864;9.190;2022-09-14T00:29:34;20.10;1.00
11511;DHT22;5812;48.864;9.190;2022-09-14T00:32:00;20.00;27.90
11511;DHT22;5812;48.864;9.190;2022-09-14T00:34:26;19.90;99.90
11511;DHT22;5812;48.864;9.190;2022-09-14T00:36:52;19.90;69.60
11511;DHT22;5812;48.864;9.190;2022-09-14T00:39:21;19.90;1.00
11511;DHT22;5812;48.864;9.190;2022-09-14T00:41:48;19.80;66.10
11511;DHT22;5812;48.864;9.190;2022-09-14T00:46:47;19.90;99.90
11511;DHT22;5812;48.864;9.190;2022-09-14T00:49:20;20.00;99.90
11511;DHT22;5812;48.864;9.190;2022-09-14T00:54:23;19.90;99.90
11511;DHT22;5812;48.864;9.190;2022-09-14T00:56:48;19.80;95.10
11511;DHT22;5812;48.864;9.190;2022-09-14T00:59:18;19.80;99.90
11511;DHT22;5812;48.864;9.190;2022-09-14T01:01:46;19.70;99.90
11511;DHT22;5812;48.864;9.190;2022-09-14T01:04:12;19.80;86.80
11511;DHT22;5812;48.864;9.190;2022-09-14T01:09:44;19.80;99.90
11511;DHT22;5812;48.864;9.190;2022-09-14T01:18:01;19.70;99.90
11511;DHT22;5812;48.864;9.190;2022-09-14T01:21:33;19.70;99.90
11511;DHT22;5812;48.864;9.190;2022-09-14T01:23:53;19.70;99.90
11511;DHT22;5812;48.864;9.190;2022-09-14T01:26:46;19.60;99.90
11511;DHT22;5812;48.864;9.190;2022-09-14T01:29:31;19.70;99.90
11511;DHT22;5812;48.864;9.190;2022-09-14T01:37:39;19.50;99.90
11511;DHT22;5812;48.864;9.190;2022-09-14T01:42:59;19.30;1.00
11511;DHT22;5812;48.864;9.190;2022-09-14T01:45:27;19.00;71.50
11511;DHT22;5812;48.864;9.190;2022-09-14T01:48:02;18.50;99.90
11511;DHT22;5812;48.864;9.190;2022-09-14T01:50:48;18.20;99.90
11511;DHT22;5812;48.864;9.190;2022-09-14T01:53:19;18.10;99.90
11511;DHT22;5812;48.864;9.190;2022-09-14T01:55:58;18.10;99.90
11511;DHT22;5812;48.864;9.190;2022-09-14T01:58:37;18.10;99.90
11511;DHT22;5812;48.864;9.190;2022-09-14T02:01:07;18.10;99.90
11511;DHT22;5812;48.864;9.190;2022-09-14T02:03:42;18.20;99.90
11511;DHT22;5812;48.864;9.190;2022-09-14T02:06:23;18.30;99.90
11511;DHT22;5812;48.864;9.190;2022-09-14T02:08:51;18.30;99.90
11511;DHT22;5812;48.864;9.190;2022-09-14T02:11:17;18.30;99.90
11511;DHT22;5812;48.864;9.190;2022-09-14T02:13:43;18.30;99.90
11511;DHT22;5812;48.864;9.190;2022-09-14T02:16:08;18.30;99.90
11511;DHT22;5812;48.864;9.190;2022-09-14T02:18:34;18.40;99.90
11511;DHT22;5812;48.864;9.190;2022-09-14T02:21:08;18.30;99.90
11511;DHT22;5812;48.864;9.190;2022-09-14T02:23:35;18.40;99.90
11511;DHT22;5812;48.864;9.190;2022-09-14T02:26:01;18.20;99.90
11511;DHT22;5812;48.864;9.190;2022-09-14T02:28:27;18.20;99.90
11511;DHT22;5812;48.864;9.190;2022-09-14T02:36:40;18.10;99.90
11511;DHT22;5812;48.864;9.190;2022-09-14T02:41:54;18.20;99.90
11511;DHT22;5812;48.864;9.190;2022-09-14T02:47:42;18.20;99.90
11511;DHT22;5812;48.864;9.190;2022-09-14T02:53:00;18.10;99.90
11511;DHT22;5812;48.864;9.190;2022-09-14T02:55:33;18.20;99.90
11511;DHT22;5812;48.864;9.190;2022-09-14T02:58:13;18.30;99.90
11511;DHT22;5812;48.864;9.190;2022-09-14T03:00:44;18.20;99.90
11511;DHT22;5812;48.864;9.190;2022-09-14T03:03:12;18.50;99.90
11511;DHT22;5812;48.864;9.190;2022-09-14T03:05:38;18.40;99.90
11511;DHT22;5812;48.864;9.190;2022-09-14T03:08:04;18.20;99.90
11511;DHT22;5812;48.864;9.190;2022-09-14T03:10:31;18.20;99.90
11511;DHT22;5812;48.864;9.190;2022-09-14T03:12:57;18.10;99.90
11511;DHT22;5812;48.864;9.190;2022-09-14T03:15:23;18.10;99.90
11511;DHT22;5812;48.864;9.190;2022-09-14T03:17:49;18.10;99.90
11511;DHT22;5812;48.864;9.190;2022-09-14T03:20:17;18.30;99.90
11511;DHT22;5812;48.864;9.190;2022-09-14T03:22:44;18.20;99.90
11511;DHT22;5812;48.864;9.190;2022-09-14T03:25:09;18.20;99.90
11511;DHT22;5812;48.864;9.190;2022-09-14T03:27:35;18.30;99.90
11511;DHT22;5812;48.864;9.190;2022-09-14T03:30:02;18.60;99.90
11511;DHT22;5812;48.864;9.190;2022-09-14T03:32:27;18.50;99.90
11511;DHT22;5812;48.864;9.190;2022-09-14T03:34:53;18.50;99.90
11511;DHT22;5812;48.864;9.190;2022-09-14T03:37:19;18.50;99.90
11511;DHT22;5812;48.864;9.190;2022-09-14T03:39:44;18.30;99.90
11511;DHT22;5812;48.864;9.190;2022-09-14T03:42:10;18.40;99.90
11511;DHT22;5812;48.864;9.190;2022-09-14T03:44:35;18.50;99.90
11511;DHT22;5812;48.864;9.190;2022-09-14T03:47:01;18.50;99.90
11511;DHT22;5812;48.864;9.190;2022-09-14T03:49:26;18.50;99.90
11511;DHT22;5812;48.864;9.190;2022-09-14T03:51:52;18.40;99.90
11511;DHT22;5812;48.864;9.190;2022-09-14T03:54:17;18.30;99.90
11511;DHT22;5812;48.864;9.190;2022-09-14T03:56:43;18.20;99.90
11511;DHT22;5812;48.864;9.190;2022-09-14T03:59:09;18.30;99.90
11511;DHT22;5812;48.864;9.190;2022-09-14T04:01:34;18.30;99.90
11511;DHT22;5812;48.864;9.190;2022-09-14T04:04:01;18.20;99.90
11511;DHT22;5812;48.864;9.190;2022-09-14T04:06:27;18.20;99.90
11511;DHT22;5812;48.864;9.190;2022-09-14T04:08:52;18.30;99.90
11511;DHT22;5812;48.864;9.190;2022-09-14T04:11:22;18.30;99.90
11511;DHT22;5812;48.864;9.190;2022-09-14T04:13:48;18.40;99.90
11511;DHT22;5812;48.864;9.190;2022-09-14T04:16:15;18.50;99.90
11511;DHT22;5812;48.864;9.190;2022-09-14T04:18:41;18.40;99.90
11511;DHT22;5812;48.864;9.190;2022-09-14T04:21:15;18.40;99.90
11511;DHT22;5812;48.864;9.190;2022-09-14T04:23:41;18.30;99.90
11511;DHT22;5812;48.864;9.190;2022-09-14T04:26:11;18.40;99.90
11511;DHT22;5812;48.864;9.190;2022-09-14T04:28:37;18.30;99.90
11511;DHT22;5812;48.864;9.190;2022-09-14T04:31:04;18.40;99.90
11511;DHT22;5812;48.864;9.190;2022-09-14T04:33:32;18.50;99.90
11511;DHT22;5812;48.864;9.190;2022-09-14T04:36:04;18.40;99.90
11511;DHT22;5812;48.864;9.190;2022-09-14T04:38:31;18.50;99.90
11511;DHT22;5812;48.864;9.190;2022-09-14T04:40:57;18.40;99.90
11511;DHT22;5812;48.864;9.190;2022-09-14T04:43:23;18.30;99.90
11511;DHT22;5812;48.864;9.190;2022-09-14T04:45:49;18.50;99.90
11511;DHT22;5812;48.864;9.190;2022-09-14T04:48:15;18.50;99.90
11511;DHT22;5812;48.864;9.190;2022-09-14T04:50:41;18.50;99.90
11511;DHT22;5812;48.864;9.190;2022-09-14T04:53:08;18.60;99.90
11511;DHT22;5812;48.864;9.190;2022-09-14T04:55:33;18.60;99.90
11511;DHT22;5812;48.864;9.190;2022-09-14T04:57:59;18.70;99.90
11511;DHT22;5812;48.864;9.190;2022-09-14T05:00:25;18.60;99.90
11511;DHT22;5812;48.864;9.190;2022-09-14T05:02:51;18.60;99.90
11511;DHT22;5812;48.864;9.190;2022-09-14T05:05:16;18.60;99.90
11511;DHT22;5812;48.864;9.190;2022-09-14T05:07:42;18.70;99.90
11511;DHT22;5812;48.864;9.190;2022-09-14T05:10:07;18.70;99.90
11511;DHT22;5812;48.864;9.190;2022-09-14T05:12:33;18.70;99.90
11511;DHT22;5812;48.864;9.190;2022-09-14T05:14:59;18.80;99.90
11511;DHT22;5812;48.864;9.190;2022-09-14T05:17:24;18.70;99.90
11511;DHT22;5812;48.864;9.190;2022-09-14T05:19:50;18.60;99.90
11511;DHT22;5812;48.864;9.190;2022-09-14T05:22:15;18.60;99.90
11511;DHT22;5812;48.864;9.190;2022-09-14T05:24:41;18.50;99.90
11511;DHT22;5812;48.864;9.190;2022-09-14T05:27:07;18.40;99.90
11511;DHT22;5812;48.864;9.190;2022-09-14T05:29:32;18.40;99.90
11511;DHT22;5812;48.864;9.190;2022-09-14T05:31:58;18.50;99.90
11511;DHT22;5812;48.864;9.190;2022-09-14T05:34:24;18.60;99.90
11511;DHT22;5812;48.864;9.190;2022-09-14T05:36:49;18.50;99.90
11511;DHT22;5812;48.864;9.190;2022-09-14T05:39:15;18.60;99.90
11511;DHT22;5812;48.864;9.190;2022-09-14T05:41:41;18.90;99.90
11511;DHT22;5812;48.864;9.190;2022-09-14T05:44:06;18.90;99.90
11511;DHT22;5812;48.864;9.190;2022-09-14T05:46:32;19.00;99.90
11511;DHT22;5812;48.864;9.190;2022-09-14T05:48:58;18.90;99.90
11511;DHT22;5812;48.864;9.190;2022-09-14T05:51:25;19.00;99.90
11511;DHT22;5812;48.864;9.190;2022-09-14T05:53:56;19.10;99.90
11511;DHT22;5812;48.864;9.190;2022-09-14T05:56:24;19.20;99.90
11511;DHT22;5812;48.864;9.190;2022-09-14T05:58:50;19.40;99.90
11511;DHT22;5812;48.864;9.190;2022-09-14T06:01:25;19.40;99.90
11511;DHT22;5812;48.864;9.190;2022-09-14T06:03:56;19.30;99.90
11511;DHT22;5812;48.864;9.190;2022-09-14T06:06:22;19.10;99.90
11511;DHT22;5812;48.864;9.190;2022-09-14T06:08:49;19.30;99.90
11511;DHT22;5812;48.864;9.190;2022-09-14T06:11:19;19.20;99.90
11511;DHT22;5812;48.864;9.190;2022-09-14T06:13:46;19.30;99.90
11511;DHT22;5812;48.864;9.190;2022-09-14T06:16:15;19.40;99.90
11511;DHT22;5812;48.864;9.190;2022-09-14T06:18:42;19.50;99.90
11511;DHT22;5812;48.864;9.190;2022-09-14T06:21:09;19.70;99.90
11511;DHT22;5812;48.864;9.190;2022-09-14T06:23:35;19.70;99.90
11511;DHT22;5812;48.864;9.190;2022-09-14T06:26:02;19.60;99.90
11511;DHT22;5812;48.864;9.190;2022-09-14T06:28:29;19.80;99.90
11511;DHT22;5812;48.864;9.190;2022-09-14T06:30:55;19.50;99.90
11511;DHT22;5812;48.864;9.190;2022-09-14T06:33:21;19.40;99.90
11511;DHT22;5812;48.864;9.190;2022-09-14T06:36:01;19.60;99.90
11511;DHT22;5812;48.864;9.190;2022-09-14T06:38:28;19.70;99.90
11511;DHT22;5812;48.864;9.190;2022-09-14T06:40:55;19.70;99.90
11511;DHT22;5812;48.864;9.190;2022-09-14T06:43:23;19.50;99.90
11511;DHT22;5812;48.864;9.190;2022-09-14T06:46:06;19.70;99.90
11511;DHT22;5812;48.864;9.190;2022-09-14T06:48:43;19.80;99.90
11511;DHT22;5812;48.864;9.190;2022-09-14T06:51:18;19.90;99.90
11511;DHT22;5812;48.864;9.190;2022-09-14T06:53:45;20.10;99.90
11511;DHT22;5812;48.864;9.190;2022-09-14T06:56:11;20.30;99.90
11511;DHT22;5812;48.864;9.190;2022-09-14T06:58:37;20.40;99.90
11511;DHT22;5812;48.864;9.190;2022-09-14T07:01:03;20.60;99.90
11511;DHT22;5812;48.864;9.190;2022-09-14T07:03:30;20.50;99.90
11511;DHT22;5812;48.864;9.190;2022-09-14T07:06:11;20.40;99.90
11511;DHT22;5812;48.864;9.190;2022-09-14T07:08:37;20.70;99.90
11511;DHT22;5812;48.864;9.190;2022-09-14T07:11:05;20.80;99.90
11511;DHT22;5812;48.864;9.190;2022-09-14T07:13:31;21.10;99.90
11511;DHT22;5812;48.864;9.190;2022-09-14T07:15:57;21.30;99.90
11511;DHT22;5812;48.864;9.190;2022-09-14T07:18:24;21.70;99.90
11511;DHT22;5812;48.864;9.190;2022-09-14T07:20:54;22.00;99.90
11511;DHT22;5812;48.864;9.190;2022-09-14T07:23:20;22.40;94.00
11511;DHT22;5812;48.864;9.190;2022-09-14T07:25:46;22.70;99.90
11511;DHT22;5812;48.864;9.190;2022-09-14T07:28:11;22.70;74.40
11511;DHT22;5812;48.864;9.190;2022-09-14T07:30:37;22.60;99.30
11511;DHT22;5812;48.864;9.190;2022-09-14T07:33:04;22.60;99.60
11511;DHT22;5812;48.864;9.190;2022-09-14T07:35:31;22.50;91.70
11511;DHT22;5812;48.864;9.190;2022-09-14T07:37:56;22.70;90.90
11511;DHT22;5812;48.864;9.190;2022-09-14T07:40:22;22.60;99.90
11511;DHT22;5812;48.864;9.190;2022-09-14T07:42:52;22.80;99.90
11511;DHT22;5812;48.864;9.190;2022-09-14T07:45:18;22.90;98.90
11511;DHT22;5812;48.864;9.190;2022-09-14T07:47:44;23.20;74.60
11511;DHT22;5812;48.864;9.190;2022-09-14T07:50:09;23.10;33.70
11511;DHT22;5812;48.864;9.190;2022-09-14T07:52:35;23.10;58.80
11511;DHT22;5812;48.864;9.190;2022-09-14T07:55:01;23.10;48.20
11511;DHT22;5812;48.864;9.190;2022-09-14T07:57:26;23.10;78.50
11511;DHT22;5812;48.864;9.190;2022-09-14T07:59:52;23.30;58.10
11511;DHT22;5812;48.864;9.190;2022-09-14T08:02:18;23.20;54.20
11511;DHT22;5812;48.864;9.190;2022-09-14T08:04:43;23.20;31.50
11511;DHT22;5812;48.864;9.190;2022-09-14T08:07:09;23.10;94.70
11511;DHT22;5812;48.864;9.190;2022-09-14T08:09:37;23.40;52.60
11511;DHT22;5812;48.864;9.190;2022-09-14T08:12:02;23.80;26.40
11511;DHT22;5812;48.864;9.190;2022-09-14T08:14:30;23.80;1.00
11511;DHT22;5812;48.864;9.190;2022-09-14T08:16:55;23.90;1.00
11511;DHT22;5812;48.864;9.190;2022-09-14T08:19:21;23.60;1.00
11511;DHT22;5812;48.864;9.190;2022-09-14T08:21:47;23.70;1.00
11511;DHT22;5812;48.864;9.190;2022-09-14T08:24:15;23.50;1.00
11511;DHT22;5812;48.864;9.190;2022-09-14T08:26:40;23.80;1.00
11511;DHT22;5812;48.864;9.190;2022-09-14T08:29:06;23.80;1.00
11511;DHT22;5812;48.864;9.190;2022-09-14T08:31:36;23.90;1.00
11511;DHT22;5812;48.864;9.190;2022-09-14T08:34:03;24.00;1.00
11511;DHT22;5812;48.864;9.190;2022-09-14T08:36:31;24.10;1.00
11511;DHT22;5812;48.864;9.190;2022-09-14T08:38:57;24.20;1.00
11511;DHT22;5812;48.864;9.190;2022-09-14T08:42:12;24.30;1.00
11511;DHT22;5812;48.864;9.190;2022-09-14T08:44:33;24.50;1.00
11511;DHT22;5812;48.864;9.190;2022-09-14T08:47:15;24.40;99.90
11511;DHT22;5812;48.864;9.190;2022-09-14T08:49:50;24.30;1.00
11511;DHT22;5812;48.864;9.190;2022-09-14T08:55:05;24.80;99.90
11511;DHT22;5812;48.864;9.190;2022-09-14T08:58:12;24.70;99.90
11511;DHT22;5812;48.864;9.190;2022-09-14T09:00:56;24.70;1.00
11511;DHT22;5812;48.864;9.190;2022-09-14T09:03:50;24.80;1.00
11511;DHT22;5812;48.864;9.190;2022-09-14T09:06:25;24.70;99.90
11511;DHT22;5812;48.864;9.190;2022-09-14T09:09:40;24.90;99.90
11511;DHT22;5812;48.864;9.190;2022-09-14T09:11:49;25.60;99.90
11511;DHT22;5812;48.864;9.190;2022-09-14T09:14:21;25.70;99.90
11511;DHT22;5812;48.864;9.190;2022-09-14T09:16:50;26.20;99.90
11511;DHT22;5812;48.864;9.190;2022-09-14T09:19:22;26.60;99.90
11511;DHT22;5812;48.864;9.190;2022-09-14T09:21:49;26.90;99.90
11511;DHT22;5812;48.864;9.190;2022-09-14T09:24:28;27.20;99.90
11511;DHT22;5812;48.864;9.190;2022-09-14T09:26:55;27.40;99.90
11511;DHT22;5812;48.864;9.190;2022-09-14T09:29:21;27.70;99.90
11511;DHT22;5812;48.864;9.190;2022-09-14T09:31:52;28.30;99.90
11511;DHT22;5812;48.864;9.190;2022-09-14T09:34:26;28.60;99.90
11511;DHT22;5812;48.864;9.190;2022-09-14T09:36:53;28.20;99.90
11511;DHT22;5812;48.864;9.190;2022-09-14T09:39:20;27.90;94.40
11511;DHT22;5812;48.864;9.190;2022-09-14T09:41:51;28.00;77.10
11511;DHT22;5812;48.864;9.190;2022-09-14T09:44:19;27.90;98.90
11511;DHT22;5812;48.864;9.190;2022-09-14T09:46:50;28.00;99.90
11511;DHT22;5812;48.864;9.190;2022-09-14T09:49:20;28.00;73.10
11511;DHT22;5812;48.864;9.190;2022-09-14T09:51:47;28.30;99.80
11511;DHT22;5812;48.864;9.190;2022-09-14T09:56:50;29.20;29.70
11511;DHT22;5812;48.864;9.190;2022-09-14T09:59:39;29.20;89.90
11511;DHT22;5812;48.864;9.190;2022-09-14T10:05:00;28.70;95.40
11511;DHT22;5812;48.864;9.190;2022-09-14T10:07:28;29.00;45.70
11511;DHT22;5812;48.864;9.190;2022-09-14T10:10:22;29.70;59.40
11511;DHT22;5812;48.864;9.190;2022-09-14T10:12:52;30.10;17.80
11511;DHT22;5812;48.864;9.190;2022-09-14T10:15:45;30.10;11.00
11511;DHT22;5812;48.864;9.190;2022-09-14T10:20:38;29.80;1.00
11511;DHT22;5812;48.864;9.190;2022-09-14T10:25:43;29.80;1.00
11511;DHT22;5812;48.864;9.190;2022-09-14T10:28:29;29.70;1.00
11511;DHT22;5812;48.864;9.190;2022-09-14T10:33:50;30.30;1.00
11511;DHT22;5812;48.864;9.190;2022-09-14T10:36:23;30.30;1.00
11511;DHT22;5812;48.864;9.190;2022-09-14T10:44:42;30.40;1.00
11511;DHT22;5812;48.864;9.190;2022-09-14T10:55:55;30.60;1.00
11511;DHT22;5812;48.864;9.190;2022-09-14T10:58:37;30.60;1.00
11511;DHT22;5812;48.864;9.190;2022-09-14T11:01:24;30.00;1.00
11511;DHT22;5812;48.864;9.190;2022-09-14T11:04:23;30.10;1.00
11511;DHT22;5812;48.864;9.190;2022-09-14T11:07:01;30.50;1.00
11511;DHT22;5812;48.864;9.190;2022-09-14T11:09:37;30.50;1.00
11511;DHT22;5812;48.864;9.190;2022-09-14T11:14:51;30.40;1.00
11511;DHT22;5812;48.864;9.190;2022-09-14T11:23:11;31.10;1.00
11511;DHT22;5812;48.864;9.190;2022-09-14T11:28:15;31.60;1.00
11511;DHT22;5812;48.864;9.190;2022-09-14T11:30:49;31.80;1.00
11511;DHT22;5812;48.864;9.190;2022-09-14T11:36:00;32.60;1.00
11511;DHT22;5812;48.864;9.190;2022-09-14T11:38:30;32.60;1.00
11511;DHT22;5812;48.864;9.190;2022-09-14T11:41:13;32.50;1.00
11511;DHT22;5812;48.864;9.190;2022-09-14T11:43:51;32.00;1.00
11511;DHT22;5812;48.864;9.190;2022-09-14T11:48:59;32.80;1.00
11511;DHT22;5812;48.864;9.190;2022-09-14T11:51:35;33.20;1.00
11511;DHT22;5812;48.864;9.190;2022-09-14T11:54:01;34.00;1.00
11511;DHT22;5812;48.864;9.190;2022-09-14T11:56:31;35.30;1.00
11511;DHT22;5812;48.864;9.190;2022-09-14T11:59:00;35.60;1.00
11511;DHT22;5812;48.864;9.190;2022-09-14T12:01:33;34.80;1.00
11511;DHT22;5812;48.864;9.190;2022-09-14T12:04:09;34.60;1.00
11511;DHT22;5812;48.864;9.190;2022-09-14T12:11:43;31.60;1.00
11511;DHT22;5812;48.864;9.190;2022-09-14T12:17:16;31.20;1.00
11511;DHT22;5812;48.864;9.190;2022-09-14T12:19:47;30.50;1.00
11511;DHT22;5812;48.864;9.190;2022-09-14T12:25:39;29.30;1.00
11511;DHT22;5812;48.864;9.190;2022-09-14T12:27:47;28.80;1.00
11511;DHT22;5812;48.864;9.190;2022-09-14T12:30:33;28.50;1.00
11511;DHT22;5812;48.864;9.190;2022-09-14T12:33:00;28.20;1.00
11511;DHT22;5812;48.864;9.190;2022-09-14T12:35:38;27.90;1.00
11511;DHT22;5812;48.864;9.190;2022-09-14T12:46:10;27.10;1.00
11511;DHT22;5812;48.864;9.190;2022-09-14T12:48:57;26.80;11.80
11511;DHT22;5812;48.864;9.190;2022-09-14T12:51:40;26.70;17.10
11511;DHT22;5812;48.864;9.190;2022-09-14T12:59:22;25.30;1.00
11511;DHT22;5812;48.864;9.190;2022-09-14T13:04:40;23.50;1.00
11511;DHT22;5812;48.864;9.190;2022-09-14T13:07:16;23.20;1.00
11511;DHT22;5812;48.864;9.190;2022-09-14T13:09:49;22.70;11.80
11511;DHT22;5812;48.864;9.190;2022-09-14T13:12:26;22.40;47.00
11511;DHT22;5812;48.864;9.190;2022-09-14T13:14:57;22.10;61.90
11511;DHT22;5812;48.864;9.190;2022-09-14T13:17:23;21.90;83.10
11511;DHT22;5812;48.864;9.190;2022-09-14T13:20:00;21.60;92.20
11511;DHT22;5812;48.864;9.190;2022-09-14T13:22:30;21.40;99.90
11511;DHT22;5812;48.864;9.190;2022-09-14T13:24:59;21.40;99.90
11511;DHT22;5812;48.864;9.190;2022-09-14T13:27:31;21.30;99.90
11511;DHT22;5812;48.864;9.190;2022-09-14T13:32:24;21.00;99.90
11511;DHT22;5812;48.864;9.190;2022-09-14T13:34:50;21.00;99.90
11511;DHT22;5812;48.864;9.190;2022-09-14T13:37:18;20.80;99.90
11511;DHT22;5812;48.864;9.190;2022-09-14T13:39:52;20.70;99.90
11511;DHT22;5812;48.864;9.190;2022-09-14T13:42:20;20.70;99.90
11511;DHT22;5812;48.864;9.190;2022-09-14T13:44:46;20.60;99.90
11511;DHT22;5812;48.864;9.190;2022-09-14T13:47:32;20.90;99.90
11511;DHT22;5812;48.864;9.190;2022-09-14T13:49:58;20.40;99.90
11511;DHT22;5812;48.864;9.190;2022-09-14T13:54:56;20.40;99.90
11511;DHT22;5812;48.864;9.190;2022-09-14T13:57:32;20.40;99.90
11511;DHT22;5812;48.864;9.190;2022-09-14T14:00:19;20.40;99.90
11511;DHT22;5812;48.864;9.190;2022-09-14T14:02:51;20.40;99.90
11511;DHT22;5812;48.864;9.190;2022-09-14T14:05:26;20.50;99.90
11511;DHT22;5812;48.864;9.190;2022-09-14T14:07:54;20.70;99.90
11511;DHT22;5812;48.864;9.190;2022-09-14T14:10:58;20.60;99.90
11511;DHT22;5812;48.864;9.190;2022-09-14T14:13:25;20.80;99.90
11511;DHT22;5812;48.864;9.190;2022-09-14T14:15:51;20.80;99.90
11511;DHT22;5812;48.864;9.190;2022-09-14T14:18:53;20.80;99.90
11511;DHT22;5812;48.864;9.190;2022-09-14T14:24:24;20.70;99.90
11511;DHT22;5812;48.864;9.190;2022-09-14T14:26:54;20.80;99.90
11511;DHT22;5812;48.864;9.190;2022-09-14T14:29:20;20.80;99.90
11511;DHT22;5812;48.864;9.190;2022-09-14T14:31:46;20.70;99.90
11511;DHT22;5812;48.864;9.190;2022-09-14T14:34:26;20.70;99.90
11511;DHT22;5812;48.864;9.190;2022-09-14T14:36:53;20.70;99.90
11511;DHT22;5812;48.864;9.190;2022-09-14T14:39:21;20.90;99.90
11511;DHT22;5812;48.864;9.190;2022-09-14T14:41:47;21.00;99.90
11511;DHT22;5812;48.864;9.190;2022-09-14T14:44:22;21.10;99.90
11511;DHT22;5812;48.864;9.190;2022-09-14T14:46:48;21.20;99.90
11511;DHT22;5812;48.864;9.190;2022-09-14T14:49:16;21.10;99.90
11511;DHT22;5812;48.864;9.190;2022-09-14T14:51:43;21.30;99.90
11511;DHT22;5812;48.864;9.190;2022-09-14T14:54:09;21.10;99.90
11511;DHT22;5812;48.864;9.190;2022-09-14T14:56:38;21.10;99.90
11511;DHT22;5812;48.864;9.190;2022-09-14T15:01:49;21.10;99.90
11511;DHT22;5812;48.864;9.190;2022-09-14T15:04:15;20.90;99.90
11511;DHT22;5812;48.864;9.190;2022-09-14T15:06:41;20.80;99.90
11511;DHT22;5812;48.864;9.190;2022-09-14T15:09:14;20.90;99.90
11511;DHT22;5812;48.864;9.190;2022-09-14T15:11:39;20.80;99.90
11511;DHT22;5812;48.864;9.190;2022-09-14T15:14:10;20.80;99.90
11511;DHT22;5812;48.864;9.190;2022-09-14T15:16:36;20.80;99.90
11511;DHT22;5812;48.864;9.190;2022-09-14T15:19:01;20.60;99.90
11511;DHT22;5812;48.864;9.190;2022-09-14T15:21:27;20.70;99.90
11511;DHT22;5812;48.864;9.190;2022-09-14T15:23:52;20.60;99.90
11511;DHT22;5812;48.864;9.190;2022-09-14T15:26:18;20.60;99.90
11511;DHT22;5812;48.864;9.190;2022-09-14T15:28:43;20.50;99.90
11511;DHT22;5812;48.864;9.190;2022-09-14T15:31:10;20.40;99.90
11511;DHT22;5812;48.864;9.190;2022-09-14T15:33:36;20.30;96.40
11511;DHT22;5812;48.864;9.190;2022-09-14T15:36:01;20.20;99.90
11511;DHT22;5812;48.864;9.190;2022-09-14T15:38:27;20.40;99.90
11511;DHT22;5812;48.864;9.190;2022-09-14T15:40:53;20.40;99.90
11511;DHT22;5812;48.864;9.190;2022-09-14T15:43:19;20.40;99.90
11511;DHT22;5812;48.864;9.190;2022-09-14T15:45:44;20.60;98.80
11511;DHT22;5812;48.864;9.190;2022-09-14T15:48:11;20.70;77.40
11511;DHT22;5812;48.864;9.190;2022-09-14T15:50:39;20.80;73.30
11511;DHT22;5812;48.864;9.190;2022-09-14T15:53:04;21.50;86.90
11511;DHT22;5812;48.864;9.190;2022-09-14T15:55:30;20.80;97.50
11511;DHT22;5812;48.864;9.190;2022-09-14T15:57:55;20.60;57.50
11511;DHT22;5812;48.864;9.190;2022-09-14T16:00:21;20.90;86.00
11511;DHT22;5812;48.864;9.190;2022-09-14T16:02:48;20.80;23.80
11511;DHT22;5812;48.864;9.190;2022-09-14T16:05:13;20.70;90.00
11511;DHT22;5812;48.864;9.190;2022-09-14T16:07:40;20.80;33.00
11511;DHT22;5812;48.864;9.190;2022-09-14T16:10:05;20.80;22.20
11511;DHT22;5812;48.864;9.190;2022-09-14T16:12:31;20.60;62.70
11511;DHT22;5812;48.864;9.190;2022-09-14T16:14:57;20.50;1.00
11511;DHT22;5812;48.864;9.190;2022-09-14T16:17:22;20.50;6.40
11511;DHT22;5812;48.864;9.190;2022-09-14T16:19:48;20.60;12.50
11511;DHT22;5812;48.864;9.190;2022-09-14T16:22:13;20.40;18.70
11511;DHT22;5812;48.864;9.190;2022-09-14T16:24:39;20.70;2.20
11511;DHT22;5812;48.864;9.190;2022-09-14T16:27:04;20.60;1.00
11511;DHT22;5812;48.864;9.190;2022-09-14T16:29:30;20.60;49.30
11511;DHT22;5812;48.864;9.190;2022-09-14T16:31:55;20.60;76.90
11511;DHT22;5812;48.864;9.190;2022-09-14T16:34:25;22.20;1.00
11511;DHT22;5812;48.864;9.190;2022-09-14T16:36:51;20.70;48.10
11511;DHT22;5812;48.864;9.190;2022-09-14T16:39:18;20.40;70.40
11511;DHT22;5812;48.864;9.190;2022-09-14T16:41:44;21.10;85.20
11511;DHT22;5812;48.864;9.190;2022-09-14T16:44:11;20.40;96.00
11511;DHT22;5812;48.864;9.190;2022-09-14T16:46:37;20.40;1.80
11511;DHT22;5812;48.864;9.190;2022-09-14T16:49:03;20.30;85.20
11511;DHT22;5812;48.864;9.190;2022-09-14T16:51:30;20.20;94.20
11511;DHT22;5812;48.864;9.190;2022-09-14T16:53:56;20.30;77.90
11511;DHT22;5812;48.864;9.190;2022-09-14T16:56:23;20.30;99.90
11511;DHT22;5812;48.864;9.190;2022-09-14T16:58:50;20.40;76.20
11511;DHT22;5812;48.864;9.190;2022-09-14T17:01:17;20.50;36.00
11511;DHT22;5812;48.864;9.190;2022-09-14T17:03:43;20.40;67.80
11511;DHT22;5812;48.864;9.190;2022-09-14T17:06:10;21.70;51.20
11511;DHT22;5812;48.864;9.190;2022-09-14T17:08:36;20.40;32.00
11511;DHT22;5812;48.864;9.190;2022-09-14T17:11:02;20.40;39.30
11511;DHT22;5812;48.864;9.190;2022-09-14T17:13:31;20.30;71.00
11511;DHT22;5812;48.864;9.190;2022-09-14T17:16:00;20.30;51.10
11511;DHT22;5812;48.864;9.190;2022-09-14T17:18:26;20.20;66.80
11511;DHT22;5812;48.864;9.190;2022-09-14T17:20:53;20.20;55.50
11511;DHT22;5812;48.864;9.190;2022-09-14T17:23:19;20.10;65.70
11511;DHT22;5812;48.864;9.190;2022-09-14T17:25:44;20.50;67.30
11511;DHT22;5812;48.864;9.190;2022-09-14T17:28:10;22.00;92.00
11511;DHT22;5812;48.864;9.190;2022-09-14T17:30:35;19.90;93.90
11511;DHT22;5812;48.864;9.190;2022-09-14T17:33:01;19.80;99.90
11511;DHT22;5812;48.864;9.190;2022-09-14T17:35:26;19.60;99.90
11511;DHT22;5812;48.864;9.190;2022-09-14T17:37:52;19.50;99.90
11511;DHT22;5812;48.864;9.190;2022-09-14T17:40:17;20.30;99.90
11511;DHT22;5812;48.864;9.190;2022-09-14T17:42:43;19.60;99.90
11511;DHT22;5812;48.864;9.190;2022-09-14T17:45:09;19.60;99.90
11511;DHT22;5812;48.864;9.190;2022-09-14T17:47:34;19.70;94.00
11511;DHT22;5812;48.864;9.190;2022-09-14T17:50:00;19.80;90.20
11511;DHT22;5812;48.864;9.190;2022-09-14T17:52:26;19.70;96.80
11511;DHT22;5812;48.864;9.190;2022-09-14T17:54:51;21.10;99.90
11511;DHT22;5812;48.864;9.190;2022-09-14T17:57:17;20.50;99.90
11511;DHT22;5812;48.864;9.190;2022-09-14T17:59:43;19.60;99.90
11511;DHT22;5812;48.864;9.190;2022-09-14T18:02:08;19.50;99.90
11511;DHT22;5812;48.864;9.190;2022-09-14T18:04:34;19.60;99.90